Ashland, Kansas
Current Conditions -  °F | °C
As of 2:52 AM on Saturday 01 Nov 2014 (Local Time) from KDDC Reporting Station
Clear Clear  
Wind Chill: 25°   Ceiling: Unl
Heat Index: 34°   Visibility: 10mi
Dew Point: 16°   Wind: 14mph
Humidity: 48%   Direction: 160°SSE
Pressure: 30.3"   Gusts: NA
Location:  37.19°N, 99.77°W
Report Text: KDDC 010752Z AUTO 16012KT 10SM CLR 01/M09 A3030 RMK AO2 SLP269 T00111089
Loading
Personal Weather Stations






























Interactive Weather Map
Tropical Storm Tracking
New forecast layout! Learn more

10-Day Weather Forecast

Advertisements
Track Severe Weather on mobile